sensor_id;sensor_type;location;lat;lon;timestamp;pressure;altitude;pressure_sealevel;temperature;humidity
68489;BME280;55481;48.764;8.936;2022-07-29T00:04:54;96850;;;19.5;49.5
68489;BME280;55481;48.764;8.936;2022-07-29T00:07:11;96850;;;19.4;50
68489;BME280;55481;48.764;8.936;2022-07-29T00:12:05;96850;;;19.4;50
68489;BME280;55481;48.764;8.936;2022-07-29T00:14:36;96850;;;19.4;50.5
68489;BME280;55481;48.764;8.936;2022-07-29T00:17:07;96850;;;19.3;50.5
68489;BME280;55481;48.764;8.936;2022-07-29T00:19:31;96840;;;19.4;50.5
68489;BME280;55481;48.764;8.936;2022-07-29T00:27:03;96850;;;19.3;51
68489;BME280;55481;48.764;8.936;2022-07-29T00:29:34;96850;;;19.3;51
68489;BME280;55481;48.764;8.936;2022-07-29T00:32:05;96850;;;19.3;51
68489;BME280;55481;48.764;8.936;2022-07-29T00:34:36;96850;;;19.3;51
68489;BME280;55481;48.764;8.936;2022-07-29T00:39:43;96840;;;19.3;51.5
68489;BME280;55481;48.764;8.936;2022-07-29T00:42:14;96840;;;19.1;51.5
68489;BME280;55481;48.764;8.936;2022-07-29T00:47:09;96830;;;19.1;51.5
68489;BME280;55481;48.764;8.936;2022-07-29T00:54:42;96820;;;19.1;52
68489;BME280;55481;48.764;8.936;2022-07-29T00:57:12;96820;;;19.1;52
68489;BME280;55481;48.764;8.936;2022-07-29T00:59:43;96820;;;19;52
68489;BME280;55481;48.764;8.936;2022-07-29T01:02:14;96810;;;18.9;52.5
68489;BME280;55481;48.764;8.936;2022-07-29T01:09:53;96810;;;18.9;52.5
68489;BME280;55481;48.764;8.936;2022-07-29T01:12:24;96810;;;19;52.5
68489;BME280;55481;48.764;8.936;2022-07-29T01:14:55;96810;;;18.8;53
68489;BME280;55481;48.764;8.936;2022-07-29T01:20:06;96810;;;18.8;52.5
68489;BME280;55481;48.764;8.936;2022-07-29T01:22:37;96810;;;18.7;53
68489;BME280;55481;48.764;8.936;2022-07-29T01:25:03;96810;;;18.8;52.5
68489;BME280;55481;48.764;8.936;2022-07-29T01:29:59;96810;;;18.8;53
68489;BME280;55481;48.764;8.936;2022-07-29T01:32:37;96800;;;18.6;53.5
68489;BME280;55481;48.764;8.936;2022-07-29T01:40:25;96800;;;18.7;53
68489;BME280;55481;48.764;8.936;2022-07-29T01:42:42;96790;;;18.7;53.5
68489;BME280;55481;48.764;8.936;2022-07-29T01:47:39;96790;;;18.9;53
68489;BME280;55481;48.764;8.936;2022-07-29T01:50:05;96780;;;18.8;53.5
68489;BME280;55481;48.764;8.936;2022-07-29T01:52:36;96780;;;18.8;53
68489;BME280;55481;48.764;8.936;2022-07-29T01:55:07;96790;;;18.9;53
68489;BME280;55481;48.764;8.936;2022-07-29T01:57:37;96790;;;18.9;53
68489;BME280;55481;48.764;8.936;2022-07-29T02:00:20;96790;;;19;53
68489;BME280;55481;48.764;8.936;2022-07-29T02:02:50;96790;;;19.1;52.5
68489;BME280;55481;48.764;8.936;2022-07-29T02:07:38;96780;;;19.1;53
68489;BME280;55481;48.764;8.936;2022-07-29T02:10:10;96780;;;19.1;53
68489;BME280;55481;48.764;8.936;2022-07-29T02:17:37;96780;;;19.1;53
68489;BME280;55481;48.764;8.936;2022-07-29T02:20:08;96780;;;19.1;53
68489;BME280;55481;48.764;8.936;2022-07-29T02:27:38;96790;;;19.2;53
68489;BME280;55481;48.764;8.936;2022-07-29T02:30:09;96790;;;19.2;53
68489;BME280;55481;48.764;8.936;2022-07-29T02:32:40;96790;;;19.3;53
68489;BME280;55481;48.764;8.936;2022-07-29T02:37:53;96790;;;19.2;53
68489;BME280;55481;48.764;8.936;2022-07-29T02:40:23;96790;;;19.1;53.5
68489;BME280;55481;48.764;8.936;2022-07-29T02:42:47;96790;;;19.1;53.5
68489;BME280;55481;48.764;8.936;2022-07-29T02:45:18;96780;;;19;53.5
68489;BME280;55481;48.764;8.936;2022-07-29T02:47:49;96780;;;19;53.5
68489;BME280;55481;48.764;8.936;2022-07-29T02:50:21;96780;;;19;53.5
68489;BME280;55481;48.764;8.936;2022-07-29T03:00:29;96780;;;18.9;54
68489;BME280;55481;48.764;8.936;2022-07-29T03:02:59;96780;;;18.8;54
68489;BME280;55481;48.764;8.936;2022-07-29T03:05:23;96780;;;18.8;54
68489;BME280;55481;48.764;8.936;2022-07-29T03:07:58;96780;;;18.7;54.5
68489;BME280;55481;48.764;8.936;2022-07-29T03:10:25;96770;;;18.7;54.5
68489;BME280;55481;48.764;8.936;2022-07-29T03:18:17;96790;;;18.6;54.5
68489;BME280;55481;48.764;8.936;2022-07-29T03:20:34;96790;;;18.6;54.5
68489;BME280;55481;48.764;8.936;2022-07-29T03:23:05;96790;;;18.6;54.5
68489;BME280;55481;48.764;8.936;2022-07-29T03:27:58;96780;;;18.6;54.5
68489;BME280;55481;48.764;8.936;2022-07-29T03:30:30;96780;;;18.6;54.5
68489;BME280;55481;48.764;8.936;2022-07-29T03:33:00;96790;;;18.5;54.5
68489;BME280;55481;48.764;8.936;2022-07-29T03:35:31;96780;;;18.5;55
68489;BME280;55481;48.764;8.936;2022-07-29T03:43:11;96800;;;18.3;55
68489;BME280;55481;48.764;8.936;2022-07-29T03:45:42;96800;;;18.3;55
68489;BME280;55481;48.764;8.936;2022-07-29T03:48:12;96800;;;18.3;55
68489;BME280;55481;48.764;8.936;2022-07-29T03:53:05;96800;;;18.2;55.5
68489;BME280;55481;48.764;8.936;2022-07-29T03:55:43;96800;;;18.1;55.5
68489;BME280;55481;48.764;8.936;2022-07-29T04:00:38;96790;;;18.2;55.5
68489;BME280;55481;48.764;8.936;2022-07-29T04:06:04;96790;;;18.1;55.5
68489;BME280;55481;48.764;8.936;2022-07-29T04:08:17;96790;;;18.2;55.5
68489;BME280;55481;48.764;8.936;2022-07-29T04:11:02;96790;;;18.2;55.5
68489;BME280;55481;48.764;8.936;2022-07-29T04:15:41;96790;;;18.4;55
68489;BME280;55481;48.764;8.936;2022-07-29T04:18:12;96800;;;18.4;55
68489;BME280;55481;48.764;8.936;2022-07-29T04:20:43;96800;;;18.5;55
68489;BME280;55481;48.764;8.936;2022-07-29T04:30:52;96800;;;18.4;55
68489;BME280;55481;48.764;8.936;2022-07-29T04:33:22;96800;;;18.5;55
68489;BME280;55481;48.764;8.936;2022-07-29T04:38:16;96810;;;18.4;55.5
68489;BME280;55481;48.764;8.936;2022-07-29T04:40:47;96800;;;18.4;55.5
68489;BME280;55481;48.764;8.936;2022-07-29T04:43:18;96800;;;18.4;55.5
68489;BME280;55481;48.764;8.936;2022-07-29T04:45:42;96800;;;18.5;55.5
68489;BME280;55481;48.764;8.936;2022-07-29T04:53:14;96800;;;18.6;55
68489;BME280;55481;48.764;8.936;2022-07-29T04:55:45;96800;;;18.6;55.5
68489;BME280;55481;48.764;8.936;2022-07-29T04:58:16;96800;;;18.8;55
68489;BME280;55481;48.764;8.936;2022-07-29T05:03:23;96800;;;18.9;54.5
68489;BME280;55481;48.764;8.936;2022-07-29T05:08:25;96800;;;18.9;55
68489;BME280;55481;48.764;8.936;2022-07-29T05:11:03;96810;;;19.1;54.5
68489;BME280;55481;48.764;8.936;2022-07-29T05:16:11;96810;;;19.4;54
68489;BME280;55481;48.764;8.936;2022-07-29T05:18:34;96810;;;19.4;54
68489;BME280;55481;48.764;8.936;2022-07-29T05:30:25;96810;;;19.7;55
68489;BME280;55481;48.764;8.936;2022-07-29T05:34:54;96810;;;19.7;54.5
68489;BME280;55481;48.764;8.936;2022-07-29T05:37:30;96810;;;20;54
68489;BME280;55481;48.764;8.936;2022-07-29T05:39:56;96810;;;20.1;54
68489;BME280;55481;48.764;8.936;2022-07-29T05:42:27;96810;;;20;54
68489;BME280;55481;48.764;8.936;2022-07-29T05:44:57;96810;;;20.1;54
68489;BME280;55481;48.764;8.936;2022-07-29T05:47:28;96810;;;20.3;53.5
68489;BME280;55481;48.764;8.936;2022-07-29T05:49:58;96810;;;20.5;53
68489;BME280;55481;48.764;8.936;2022-07-29T05:52:29;96810;;;20.7;52.5
68489;BME280;55481;48.764;8.936;2022-07-29T05:55:00;96810;;;20.8;52.5
68489;BME280;55481;48.764;8.936;2022-07-29T06:05:09;96820;;;20.6;53.5
68489;BME280;55481;48.764;8.936;2022-07-29T06:07:40;96820;;;20.8;53.5
68489;BME280;55481;48.764;8.936;2022-07-29T06:10:11;96820;;;21.1;53
68489;BME280;55481;48.764;8.936;2022-07-29T06:20:20;96830;;;21.4;52.5
68489;BME280;55481;48.764;8.936;2022-07-29T06:22:50;96830;;;21.6;52.5
68489;BME280;55481;48.764;8.936;2022-07-29T06:27:50;96840;;;21.1;53.5
68489;BME280;55481;48.764;8.936;2022-07-29T06:32:46;96830;;;21.2;53.5
68489;BME280;55481;48.764;8.936;2022-07-29T06:35:17;96830;;;21.3;53
68489;BME280;55481;48.764;8.936;2022-07-29T06:37:48;96830;;;21.4;53
68489;BME280;55481;48.764;8.936;2022-07-29T06:40:19;96840;;;21.5;53
68489;BME280;55481;48.764;8.936;2022-07-29T06:42:50;96840;;;21.6;53
68489;BME280;55481;48.764;8.936;2022-07-29T06:45:20;96840;;;21.7;52.5
68489;BME280;55481;48.764;8.936;2022-07-29T06:47:51;96840;;;22.1;52
68489;BME280;55481;48.764;8.936;2022-07-29T06:50:21;96840;;;22.4;51.5
68489;BME280;55481;48.764;8.936;2022-07-29T06:52:52;96840;;;22.8;51
68489;BME280;55481;48.764;8.936;2022-07-29T06:55:24;96840;;;22.8;51
68489;BME280;55481;48.764;8.936;2022-07-29T06:58:02;96840;;;22.9;51
68489;BME280;55481;48.764;8.936;2022-07-29T07:05:33;96850;;;22.2;52.5
68489;BME280;55481;48.764;8.936;2022-07-29T07:08:03;96850;;;22.6;52
68489;BME280;55481;48.764;8.936;2022-07-29T07:12:58;96850;;;23.1;51
68489;BME280;55481;48.764;8.936;2022-07-29T07:15:28;96850;;;23.3;50.5
68489;BME280;55481;48.764;8.936;2022-07-29T07:17:59;96860;;;23.2;51
68489;BME280;55481;48.764;8.936;2022-07-29T07:20:30;96860;;;23.1;51.5
68489;BME280;55481;48.764;8.936;2022-07-29T07:23:01;96860;;;23.2;51
68489;BME280;55481;48.764;8.936;2022-07-29T07:28:15;96860;;;23.7;50.5
68489;BME280;55481;48.764;8.936;2022-07-29T07:30:52;96860;;;24.2;49.5
68489;BME280;55481;48.764;8.936;2022-07-29T07:35:33;96860;;;24.7;49
68489;BME280;55481;48.764;8.936;2022-07-29T07:38:04;96860;;;24.9;48.5
68489;BME280;55481;48.764;8.936;2022-07-29T07:40:36;96860;;;24.8;49
68489;BME280;55481;48.764;8.936;2022-07-29T07:42:59;96860;;;24.9;49
68489;BME280;55481;48.764;8.936;2022-07-29T07:45:29;96850;;;24.9;49.5
68489;BME280;55481;48.764;8.936;2022-07-29T07:53:02;96860;;;24;51
68489;BME280;55481;48.764;8.936;2022-07-29T07:55:33;96860;;;23.9;51.5
68489;BME280;55481;48.764;8.936;2022-07-29T07:58:04;96860;;;24;51
68489;BME280;55481;48.764;8.936;2022-07-29T08:03:18;96860;;;24.7;49.5
68489;BME280;55481;48.764;8.936;2022-07-29T08:05:42;96850;;;25.1;49
68489;BME280;55481;48.764;8.936;2022-07-29T08:08:13;96850;;;25.4;48.5
68489;BME280;55481;48.764;8.936;2022-07-29T08:10:37;96850;;;25.7;48
68489;BME280;55481;48.764;8.936;2022-07-29T08:13:09;96860;;;25.9;47.5
68489;BME280;55481;48.764;8.936;2022-07-29T08:15:39;96860;;;25.7;48
68489;BME280;55481;48.764;8.936;2022-07-29T08:23:12;96850;;;25.3;49.5
68489;BME280;55481;48.764;8.936;2022-07-29T08:25:43;96850;;;25.5;49
68489;BME280;55481;48.764;8.936;2022-07-29T08:28:20;96850;;;25.9;48.5
68489;BME280;55481;48.764;8.936;2022-07-29T08:30:51;96860;;;25.6;49
68489;BME280;55481;48.764;8.936;2022-07-29T08:33:23;96860;;;25.9;48
68489;BME280;55481;48.764;8.936;2022-07-29T08:35:53;96850;;;25.9;48
68489;BME280;55481;48.764;8.936;2022-07-29T08:38:24;96860;;;25.8;48.5
68489;BME280;55481;48.764;8.936;2022-07-29T08:40:55;96850;;;26;48
68489;BME280;55481;48.764;8.936;2022-07-29T08:43:25;96860;;;26.1;48
68489;BME280;55481;48.764;8.936;2022-07-29T08:50:52;96850;;;26.4;47.5
68489;BME280;55481;48.764;8.936;2022-07-29T08:53:21;96860;;;26.5;47.5
68489;BME280;55481;48.764;8.936;2022-07-29T08:55:52;96860;;;26.4;47.5
68489;BME280;55481;48.764;8.936;2022-07-29T08:58:24;96860;;;26.4;47.5
68489;BME280;55481;48.764;8.936;2022-07-29T09:00:55;96860;;;26.5;47.5
68489;BME280;55481;48.764;8.936;2022-07-29T09:03:25;96850;;;26.9;47
68489;BME280;55481;48.764;8.936;2022-07-29T09:06:02;96850;;;27;46.5
68489;BME280;55481;48.764;8.936;2022-07-29T09:08:40;96850;;;26.9;47
68489;BME280;55481;48.764;8.936;2022-07-29T09:13:35;96850;;;27.1;46.5
68489;BME280;55481;48.764;8.936;2022-07-29T09:18:43;96860;;;26.3;48
68489;BME280;55481;48.764;8.936;2022-07-29T09:21:14;96860;;;25.9;49
68489;BME280;55481;48.764;8.936;2022-07-29T09:23:36;96860;;;26.2;48.5
68489;BME280;55481;48.764;8.936;2022-07-29T09:26:07;96860;;;26.7;47
68489;BME280;55481;48.764;8.936;2022-07-29T09:28:41;96860;;;26.9;46.5
68489;BME280;55481;48.764;8.936;2022-07-29T09:31:16;96850;;;27.1;46.5
68489;BME280;55481;48.764;8.936;2022-07-29T09:33:47;96850;;;27.1;46.5
68489;BME280;55481;48.764;8.936;2022-07-29T09:36:11;96850;;;27.5;46
68489;BME280;55481;48.764;8.936;2022-07-29T09:38:42;96840;;;27.6;45.5
68489;BME280;55481;48.764;8.936;2022-07-29T09:41:13;96850;;;26.7;47.5
68489;BME280;55481;48.764;8.936;2022-07-29T09:43:53;96850;;;26.5;47.5
68489;BME280;55481;48.764;8.936;2022-07-29T09:48:52;96850;;;25.9;48.5
68489;BME280;55481;48.764;8.936;2022-07-29T09:51:18;96840;;;25.7;49
68489;BME280;55481;48.764;8.936;2022-07-29T09:53:48;96840;;;25.6;49
68489;BME280;55481;48.764;8.936;2022-07-29T10:01:14;96840;;;25.5;49
68489;BME280;55481;48.764;8.936;2022-07-29T10:03:53;96850;;;25.5;48.5
68489;BME280;55481;48.764;8.936;2022-07-29T10:06:15;96850;;;25.5;48.5
68489;BME280;55481;48.764;8.936;2022-07-29T10:08:46;96860;;;25.4;48.5
68489;BME280;55481;48.764;8.936;2022-07-29T10:11:18;96860;;;25.3;49
68489;BME280;55481;48.764;8.936;2022-07-29T10:13:48;96860;;;25.2;49
68489;BME280;55481;48.764;8.936;2022-07-29T10:21:26;96860;;;24.8;49.5
68489;BME280;55481;48.764;8.936;2022-07-29T10:23:57;96870;;;24.5;50
68489;BME280;55481;48.764;8.936;2022-07-29T10:26:29;96880;;;23.6;51.5
68489;BME280;55481;48.764;8.936;2022-07-29T10:29:00;96900;;;21.8;55
68489;BME280;55481;48.764;8.936;2022-07-29T10:34:07;96910;;;20.2;57.5
68489;BME280;55481;48.764;8.936;2022-07-29T10:36:27;96910;;;20.3;57
68489;BME280;55481;48.764;8.936;2022-07-29T10:39:00;96910;;;20.3;57
68489;BME280;55481;48.764;8.936;2022-07-29T10:41:30;96910;;;20.2;57
68489;BME280;55481;48.764;8.936;2022-07-29T10:44:01;96920;;;20.3;57
68489;BME280;55481;48.764;8.936;2022-07-29T10:46:27;96920;;;20.1;57
68489;BME280;55481;48.764;8.936;2022-07-29T10:49:14;96930;;;20;57.5
68489;BME280;55481;48.764;8.936;2022-07-29T10:54:00;96910;;;19.3;58.5
68489;BME280;55481;48.764;8.936;2022-07-29T11:01:32;96890;;;20;57
68489;BME280;55481;48.764;8.936;2022-07-29T11:07:06;96880;;;20.3;56
68489;BME280;55481;48.764;8.936;2022-07-29T11:09:18;96880;;;20.6;56
68489;BME280;55481;48.764;8.936;2022-07-29T11:11:42;96880;;;20.7;56
68489;BME280;55481;48.764;8.936;2022-07-29T11:14:12;96880;;;21.3;55
68489;BME280;55481;48.764;8.936;2022-07-29T11:17:14;96880;;;21.5;55
68489;BME280;55481;48.764;8.936;2022-07-29T11:21:42;96870;;;22.6;53
68489;BME280;55481;48.764;8.936;2022-07-29T11:24:13;96870;;;23.4;52
68489;BME280;55481;48.764;8.936;2022-07-29T11:31:46;96880;;;23.7;53
68489;BME280;55481;48.764;8.936;2022-07-29T11:34:21;96880;;;23.1;55
68489;BME280;55481;48.764;8.936;2022-07-29T11:37:15;96870;;;23.1;55.5
68489;BME280;55481;48.764;8.936;2022-07-29T11:39:25;96870;;;22.7;56.5
68489;BME280;55481;48.764;8.936;2022-07-29T11:41:52;96880;;;22.8;57
68489;BME280;55481;48.764;8.936;2022-07-29T11:44:47;96870;;;22.7;57
68489;BME280;55481;48.764;8.936;2022-07-29T11:49:19;96870;;;23.3;55.5
68489;BME280;55481;48.764;8.936;2022-07-29T11:51:52;96870;;;23.7;55
68489;BME280;55481;48.764;8.936;2022-07-29T11:59:21;96880;;;23.2;58
68489;BME280;55481;48.764;8.936;2022-07-29T12:01:54;96880;;;22.9;58.5
68489;BME280;55481;48.764;8.936;2022-07-29T12:04:22;96880;;;22.7;59
68489;BME280;55481;48.764;8.936;2022-07-29T12:09:24;96890;;;22.4;59.5
68489;BME280;55481;48.764;8.936;2022-07-29T12:19:49;96880;;;22.2;60
68489;BME280;55481;48.764;8.936;2022-07-29T12:24:43;96880;;;22;60.5
68489;BME280;55481;48.764;8.936;2022-07-29T12:27:18;96890;;;22.1;60.5
68489;BME280;55481;48.764;8.936;2022-07-29T12:29:39;96890;;;22.3;60
68489;BME280;55481;48.764;8.936;2022-07-29T12:32:12;96880;;;22.4;59.5
68489;BME280;55481;48.764;8.936;2022-07-29T12:34:40;96880;;;22.6;59.5
68489;BME280;55481;48.764;8.936;2022-07-29T12:37:10;96880;;;22.7;59.5
68489;BME280;55481;48.764;8.936;2022-07-29T12:42:13;96880;;;22.7;59.5
68489;BME280;55481;48.764;8.936;2022-07-29T12:44:45;96880;;;22.6;59.5
68489;BME280;55481;48.764;8.936;2022-07-29T12:49:45;96890;;;22.1;61
68489;BME280;55481;48.764;8.936;2022-07-29T12:52:31;96890;;;22.2;61
68489;BME280;55481;48.764;8.936;2022-07-29T12:57:09;96890;;;22.2;61
68489;BME280;55481;48.764;8.936;2022-07-29T12:59:40;96890;;;22.2;61
68489;BME280;55481;48.764;8.936;2022-07-29T13:02:21;96890;;;22.3;60.5
68489;BME280;55481;48.764;8.936;2022-07-29T13:04:56;96900;;;22.2;61
68489;BME280;55481;48.764;8.936;2022-07-29T13:07:27;96900;;;22.2;61
68489;BME280;55481;48.764;8.936;2022-07-29T13:10:11;96900;;;22.2;61
68489;BME280;55481;48.764;8.936;2022-07-29T13:14:45;96910;;;22.3;60.5
68489;BME280;55481;48.764;8.936;2022-07-29T13:17:18;96910;;;22.4;60.5
68489;BME280;55481;48.764;8.936;2022-07-29T13:19:48;96910;;;22.7;60
68489;BME280;55481;48.764;8.936;2022-07-29T13:22:18;96910;;;23;59.5
68489;BME280;55481;48.764;8.936;2022-07-29T13:27:14;96890;;;24.5;57.5
68489;BME280;55481;48.764;8.936;2022-07-29T13:34:44;96890;;;26;56.5
68489;BME280;55481;48.764;8.936;2022-07-29T13:39:45;96890;;;26.1;58
68489;BME280;55481;48.764;8.936;2022-07-29T13:42:16;96890;;;26.2;58.5
68489;BME280;55481;48.764;8.936;2022-07-29T13:44:49;96890;;;25.5;60
68489;BME280;55481;48.764;8.936;2022-07-29T13:47:24;96890;;;25.2;61
68489;BME280;55481;48.764;8.936;2022-07-29T13:49:55;96890;;;24.8;62
68489;BME280;55481;48.764;8.936;2022-07-29T13:54:50;96880;;;25.2;61.5
68489;BME280;55481;48.764;8.936;2022-07-29T14:02:23;96870;;;24.8;62
68489;BME280;55481;48.764;8.936;2022-07-29T14:04:54;96870;;;24.7;62.5
68489;BME280;55481;48.764;8.936;2022-07-29T14:09:57;96860;;;25;61.5
68489;BME280;55481;48.764;8.936;2022-07-29T14:12:26;96870;;;25;61.5
68489;BME280;55481;48.764;8.936;2022-07-29T14:17:39;96860;;;25.5;60.5
68489;BME280;55481;48.764;8.936;2022-07-29T14:20:12;96860;;;25;62
68489;BME280;55481;48.764;8.936;2022-07-29T14:22:34;96860;;;25.1;61.5
68489;BME280;55481;48.764;8.936;2022-07-29T14:27:36;96860;;;25.9;60
68489;BME280;55481;48.764;8.936;2022-07-29T14:30:13;96860;;;26.2;59.5
68489;BME280;55481;48.764;8.936;2022-07-29T14:32:37;96860;;;26;60.5
68489;BME280;55481;48.764;8.936;2022-07-29T14:35:09;96860;;;25.8;61
68489;BME280;55481;48.764;8.936;2022-07-29T14:37:47;96860;;;25.8;61
68489;BME280;55481;48.764;8.936;2022-07-29T14:40:17;96860;;;26;61
68489;BME280;55481;48.764;8.936;2022-07-29T14:42:44;96860;;;25.6;61.5
68489;BME280;55481;48.764;8.936;2022-07-29T14:45:12;96860;;;25.3;62.5
68489;BME280;55481;48.764;8.936;2022-07-29T14:47:43;96860;;;25.6;62
68489;BME280;55481;48.764;8.936;2022-07-29T14:50:14;96860;;;25.8;61.5
68489;BME280;55481;48.764;8.936;2022-07-29T14:52:45;96860;;;26.1;60.5
68489;BME280;55481;48.764;8.936;2022-07-29T14:55:16;96860;;;25.9;61
68489;BME280;55481;48.764;8.936;2022-07-29T14:57:47;96860;;;26;61.5
68489;BME280;55481;48.764;8.936;2022-07-29T15:00:24;96860;;;26;61.5
68489;BME280;55481;48.764;8.936;2022-07-29T15:02:48;96870;;;25.6;62.5
68489;BME280;55481;48.764;8.936;2022-07-29T15:05:26;96870;;;25.5;62.5
68489;BME280;55481;48.764;8.936;2022-07-29T15:08:02;96860;;;25.9;61.5
68489;BME280;55481;48.764;8.936;2022-07-29T15:12:50;96870;;;25.8;62
68489;BME280;55481;48.764;8.936;2022-07-29T15:15:22;96870;;;25.6;62.5
68489;BME280;55481;48.764;8.936;2022-07-29T15:20:16;96860;;;25.2;63
68489;BME280;55481;48.764;8.936;2022-07-29T15:22:48;96860;;;25.1;63.5
68489;BME280;55481;48.764;8.936;2022-07-29T15:25:18;96860;;;25.1;63
68489;BME280;55481;48.764;8.936;2022-07-29T15:35:23;96880;;;24.8;63.5
68489;BME280;55481;48.764;8.936;2022-07-29T15:37:53;96880;;;24.6;64
68489;BME280;55481;48.764;8.936;2022-07-29T15:40:23;96880;;;24.5;64
68489;BME280;55481;48.764;8.936;2022-07-29T15:45:37;96870;;;24.3;64.5
68489;BME280;55481;48.764;8.936;2022-07-29T15:48:08;96870;;;24.3;64
68489;BME280;55481;48.764;8.936;2022-07-29T15:50:37;96870;;;24.6;63.5
68489;BME280;55481;48.764;8.936;2022-07-29T15:53:07;96870;;;24.6;63.5
68489;BME280;55481;48.764;8.936;2022-07-29T15:55:38;96880;;;24.5;63.5
68489;BME280;55481;48.764;8.936;2022-07-29T16:00:34;96880;;;24.5;63.5
68489;BME280;55481;48.764;8.936;2022-07-29T16:03:02;96880;;;24.5;63.5
68489;BME280;55481;48.764;8.936;2022-07-29T16:05:34;96870;;;24.5;63.5
68489;BME280;55481;48.764;8.936;2022-07-29T16:08:05;96870;;;24.5;63.5
68489;BME280;55481;48.764;8.936;2022-07-29T16:10:38;96870;;;24.4;63.5
68489;BME280;55481;48.764;8.936;2022-07-29T16:13:08;96870;;;24.5;63.5
68489;BME280;55481;48.764;8.936;2022-07-29T16:15:38;96870;;;24.5;63.5
68489;BME280;55481;48.764;8.936;2022-07-29T16:18:08;96870;;;24.5;63.5
68489;BME280;55481;48.764;8.936;2022-07-29T16:20:39;96870;;;24.4;63.5
68489;BME280;55481;48.764;8.936;2022-07-29T16:23:11;96870;;;24.6;63
68489;BME280;55481;48.764;8.936;2022-07-29T16:25:48;96870;;;24.7;63
68489;BME280;55481;48.764;8.936;2022-07-29T16:30:43;96870;;;24.7;63
68489;BME280;55481;48.764;8.936;2022-07-29T16:33:14;96870;;;24.6;63.5
68489;BME280;55481;48.764;8.936;2022-07-29T16:38:22;96870;;;24.5;63.5
68489;BME280;55481;48.764;8.936;2022-07-29T16:40:52;96860;;;24.6;63
68489;BME280;55481;48.764;8.936;2022-07-29T16:43:22;96860;;;24.7;63
68489;BME280;55481;48.764;8.936;2022-07-29T16:45:47;96860;;;24.6;63
68489;BME280;55481;48.764;8.936;2022-07-29T16:48:18;96870;;;24.5;63.5
68489;BME280;55481;48.764;8.936;2022-07-29T16:50:56;96870;;;24.6;63.5
68489;BME280;55481;48.764;8.936;2022-07-29T16:56:03;96880;;;24.5;63.5
68489;BME280;55481;48.764;8.936;2022-07-29T17:00:57;96880;;;24.8;62.5
68489;BME280;55481;48.764;8.936;2022-07-29T17:03:28;96870;;;24.9;62.5
68489;BME280;55481;48.764;8.936;2022-07-29T17:05:57;96880;;;24.7;63
68489;BME280;55481;48.764;8.936;2022-07-29T17:08:27;96880;;;24.9;62.5
68489;BME280;55481;48.764;8.936;2022-07-29T17:10:51;96880;;;25;62.5
68489;BME280;55481;48.764;8.936;2022-07-29T17:13:28;96870;;;24.8;63
68489;BME280;55481;48.764;8.936;2022-07-29T17:18:24;96880;;;25;62.5
68489;BME280;55481;48.764;8.936;2022-07-29T17:21:15;96880;;;25.2;62
68489;BME280;55481;48.764;8.936;2022-07-29T17:23:31;96880;;;25.8;60.5
68489;BME280;55481;48.764;8.936;2022-07-29T17:26:01;96870;;;26.4;59
68489;BME280;55481;48.764;8.936;2022-07-29T17:31:02;96880;;;26.6;58.5
68489;BME280;55481;48.764;8.936;2022-07-29T17:33:32;96880;;;27.4;57
68489;BME280;55481;48.764;8.936;2022-07-29T17:43:28;96880;;;27.5;57
68489;BME280;55481;48.764;8.936;2022-07-29T17:45:58;96880;;;28;56
68489;BME280;55481;48.764;8.936;2022-07-29T17:51:06;96880;;;28.4;55.5
68489;BME280;55481;48.764;8.936;2022-07-29T17:53:36;96880;;;29.4;53
68489;BME280;55481;48.764;8.936;2022-07-29T17:56:07;96880;;;28.1;56
68489;BME280;55481;48.764;8.936;2022-07-29T18:01:03;96890;;;26.2;61
68489;BME280;55481;48.764;8.936;2022-07-29T18:03:33;96890;;;26;61.5
68489;BME280;55481;48.764;8.936;2022-07-29T18:08:41;96900;;;25.3;63
68489;BME280;55481;48.764;8.936;2022-07-29T18:11:11;96910;;;25.2;63
68489;BME280;55481;48.764;8.936;2022-07-29T18:13:35;96910;;;25.1;63
68489;BME280;55481;48.764;8.936;2022-07-29T18:16:05;96920;;;24.7;63.5
68489;BME280;55481;48.764;8.936;2022-07-29T18:18:36;96920;;;24.6;63.5
68489;BME280;55481;48.764;8.936;2022-07-29T18:21:08;96920;;;24.6;63.5
68489;BME280;55481;48.764;8.936;2022-07-29T18:23:45;96920;;;24.4;64
68489;BME280;55481;48.764;8.936;2022-07-29T18:28:40;96920;;;24.3;64
68489;BME280;55481;48.764;8.936;2022-07-29T18:31:12;96920;;;24.2;63.5
68489;BME280;55481;48.764;8.936;2022-07-29T18:33:43;96920;;;24.1;64
68489;BME280;55481;48.764;8.936;2022-07-29T18:36:14;96920;;;24;64
68489;BME280;55481;48.764;8.936;2022-07-29T18:38:44;96930;;;23.8;64
68489;BME280;55481;48.764;8.936;2022-07-29T18:41:15;96920;;;23.7;64.5
68489;BME280;55481;48.764;8.936;2022-07-29T18:43:45;96920;;;23.6;64.5
68489;BME280;55481;48.764;8.936;2022-07-29T18:46:16;96920;;;23.4;64.5
68489;BME280;55481;48.764;8.936;2022-07-29T18:48:48;96920;;;23.2;65
68489;BME280;55481;48.764;8.936;2022-07-29T18:51:26;96920;;;22.8;65.5
68489;BME280;55481;48.764;8.936;2022-07-29T18:53:56;96920;;;22.7;66
68489;BME280;55481;48.764;8.936;2022-07-29T19:01:28;96930;;;22.3;66
68489;BME280;55481;48.764;8.936;2022-07-29T19:03:58;96930;;;22.1;66
68489;BME280;55481;48.764;8.936;2022-07-29T19:08:59;96940;;;21.7;66.5
68489;BME280;55481;48.764;8.936;2022-07-29T19:11:30;96940;;;21.7;66.5
68489;BME280;55481;48.764;8.936;2022-07-29T19:16:25;96940;;;21.5;66.5
68489;BME280;55481;48.764;8.936;2022-07-29T19:18:56;96950;;;21.4;66.5
68489;BME280;55481;48.764;8.936;2022-07-29T19:24:04;96970;;;21.3;66.5
68489;BME280;55481;48.764;8.936;2022-07-29T19:26:34;96970;;;21.2;66.5
68489;BME280;55481;48.764;8.936;2022-07-29T19:29:04;96970;;;21.2;66.5
68489;BME280;55481;48.764;8.936;2022-07-29T19:31:34;96980;;;21.1;66.5
68489;BME280;55481;48.764;8.936;2022-07-29T19:33:58;96980;;;21.1;66
68489;BME280;55481;48.764;8.936;2022-07-29T19:36:30;96990;;;21;66
68489;BME280;55481;48.764;8.936;2022-07-29T19:39:07;96990;;;20.9;66.5
68489;BME280;55481;48.764;8.936;2022-07-29T19:44:03;97000;;;20.7;66.5
68489;BME280;55481;48.764;8.936;2022-07-29T19:46:34;97000;;;20.7;66.5
68489;BME280;55481;48.764;8.936;2022-07-29T19:49:04;97000;;;20.7;66
68489;BME280;55481;48.764;8.936;2022-07-29T19:51:36;97000;;;20.7;66
68489;BME280;55481;48.764;8.936;2022-07-29T19:54:07;97000;;;20.8;66
68489;BME280;55481;48.764;8.936;2022-07-29T19:56:38;97000;;;20.8;65.5